createdAt,value
2023-04-24T00:10:54.184Z,13.7
2023-04-24T00:26:03.324Z,13.6
2023-04-24T00:41:13.322Z,13.6
2023-04-24T00:56:23.032Z,13.5
2023-04-24T01:11:32.922Z,13.3
2023-04-24T01:26:42.134Z,13
2023-04-24T01:41:51.828Z,12.9
2023-04-24T01:57:01.017Z,12.9
2023-04-24T02:12:11.299Z,12.8
2023-04-24T02:27:20.820Z,12.8
2023-04-24T02:42:30.630Z,12.7
2023-04-24T02:57:40.187Z,12.7
2023-04-24T03:12:50.090Z,12.5
2023-04-24T03:27:59.749Z,12.3
2023-04-24T03:43:09.325Z,12.2
2023-04-24T03:58:18.712Z,12.1
2023-04-24T04:13:27.727Z,11.8
2023-04-24T04:28:37.228Z,11.8
2023-04-24T04:43:47.475Z,11.9
2023-04-24T04:58:57.008Z,12
2023-04-24T05:14:06.860Z,12.3
2023-04-24T05:29:16.606Z,12.5
2023-04-24T05:44:26.461Z,12.5
2023-04-24T05:59:36.299Z,12.5
2023-04-24T06:14:46.008Z,12.5
2023-04-24T06:29:55.764Z,12.5
2023-04-24T06:45:05.487Z,12.4
2023-04-24T07:00:15.156Z,12.4
2023-04-24T07:15:24.908Z,12.3
2023-04-24T07:30:34.539Z,12.4
2023-04-24T07:45:43.466Z,12.4
2023-04-24T08:00:53.230Z,12.2
2023-04-24T08:16:03.336Z,12.2
2023-04-24T08:31:13.367Z,12.2
2023-04-24T08:46:23.702Z,12.3
2023-04-24T09:01:33.645Z,12.2
2023-04-24T09:16:44.851Z,12.5
2023-04-24T09:31:54.815Z,12.5
2023-04-24T09:47:05.274Z,12.4
2023-04-24T10:02:14.657Z,12.4
2023-04-24T10:17:24.960Z,12.4
2023-04-24T10:32:35.021Z,12.4
2023-04-24T10:47:44.863Z,12.5
2023-04-24T11:02:54.894Z,12.5
2023-04-24T11:18:05.659Z,12.4
2023-04-24T11:33:15.930Z,12.4
2023-04-24T11:48:25.678Z,12.3
2023-04-24T12:03:36.059Z,12.4
2023-04-24T12:18:46.801Z,12.4
2023-04-24T12:33:56.332Z,12.2
2023-04-24T12:49:05.717Z,11.9
2023-04-24T13:04:15.213Z,11.4
2023-04-24T13:19:25.062Z,11.1
2023-04-24T13:34:36.665Z,10.8
2023-04-24T13:49:46.810Z,10.4
2023-04-24T14:04:56.533Z,9.6
2023-04-24T14:20:06.611Z,9.4
2023-04-24T14:35:16.326Z,9.1
2023-04-24T14:50:25.826Z,9.1
2023-04-24T15:05:36.133Z,9.3
2023-04-24T15:20:47.551Z,9.3
2023-04-24T15:35:57.296Z,9.4
2023-04-24T15:51:07.845Z,9.5
2023-04-24T16:06:17.486Z,9.7
2023-04-24T16:21:27.278Z,9.6
2023-04-24T16:36:36.755Z,9.7
2023-04-24T16:51:45.774Z,9.6
2023-04-24T17:06:55.674Z,9.6
2023-04-24T17:22:06.042Z,9.5
2023-04-24T17:37:15.961Z,9.5
2023-04-24T17:52:25.364Z,9.4
2023-04-24T18:07:35.039Z,9.3
2023-04-24T18:22:44.248Z,9.2
2023-04-24T18:37:53.456Z,9.1
2023-04-24T18:53:02.702Z,8.9
2023-04-24T19:08:12.208Z,8.8
2023-04-24T19:23:21.805Z,8.7
2023-04-24T19:38:31.075Z,8.6
2023-04-24T19:53:40.741Z,8.6
2023-04-24T20:08:49.742Z,8.5
2023-04-24T20:24:01.536Z,8.4
2023-04-24T20:39:11.275Z,8.4
2023-04-24T20:54:20.901Z,8.5
2023-04-24T21:09:30.943Z,8.6
2023-04-24T21:24:41.003Z,8.6
2023-04-24T21:39:50.861Z,8.6
2023-04-24T21:55:00.344Z,8.6
2023-04-24T22:10:10.557Z,8.6
2023-04-24T22:25:20.301Z,8.4
2023-04-24T22:40:30.328Z,8.3
2023-04-24T22:55:39.831Z,8.3
2023-04-24T23:10:49.288Z,8.1
2023-04-24T23:25:58.421Z,8
2023-04-24T23:41:07.796Z,8
2023-04-24T23:56:17.753Z,7.9
